Archival Weather

Chicago O'Hare International

Chicago, Illinois (KORD)

Report from: Monday, January 2, 2023 4:30 AM CST
Current time: Monday, June 17, 2024 1:44 AM CDT

Current weather – Weather history – Daily summaries
Weather forecast

Present weatherFog patches, mist
Temperature1.1°C (34.0°F)
Wind chill-0.6°C (31.0°F)
Dew point-0.6°C (30.9°F)
Winds 3 kts (1.5 m/s, 3.5 mph) North-Northeast (20°)
Visibility3 mi. (4.8 km)
Clouds Scattered clouds 200 ft. (61 m)
Ceiling: Broken clouds 14,000 ft. (4,267 m)
Altimeter30.02 in.Hg (1017 mB)
Relative humidity88 %
Density altitude-1,720 ft. (-524 m)
Remarks Automated weather observing station with precipitation discriminator
Visibility southwest west
Flight conditions Marginal Visual Meteorological Conditions
Raw dataKORD 021030Z 02003KT 3SM R10L/1400VP6000FT BCFG BR SCT002 BKN140 01/M01 A3002 RMK AO2 VIS SW-W 1 I1000 T00111006
An error has occurred. This application may no longer respond until reloaded. Reload 🗙